createdAt,value
2023-05-03T00:03:55.709Z,101045.53
2023-05-03T00:08:57.152Z,101051.59
2023-05-03T00:13:58.541Z,101049.91
2023-05-03T00:18:59.916Z,101055.38
2023-05-03T00:24:01.291Z,101054.53
2023-05-03T00:29:02.702Z,101049.06
2023-05-03T00:34:04.110Z,101059.78
2023-05-03T00:39:05.505Z,101050.75
2023-05-03T00:44:06.958Z,101052.66
2023-05-03T00:49:09.408Z,101050.75
2023-05-03T00:54:10.840Z,101045.28
2023-05-03T00:59:12.353Z,101040.66
2023-05-03T01:04:13.739Z,101046.13
2023-05-03T01:09:24.178Z,101051.38
2023-05-03T01:14:32.922Z,101050.53
2023-05-03T01:19:36.203Z,101047.19
2023-05-03T01:24:38.626Z,101044.25
2023-05-03T01:29:40.036Z,101039.81
2023-05-03T01:35:13.313Z,101049.72
2023-05-03T01:40:16.775Z,101049.91
2023-05-03T01:45:18.471Z,101049.06
2023-05-03T01:50:19.890Z,101056.66
2023-05-03T01:55:21.301Z,101062.72
2023-05-03T02:00:22.707Z,101053.50
2023-05-03T02:05:24.098Z,101045.28
2023-05-03T02:10:25.586Z,101049.31
2023-05-03T02:15:27.011Z,101041.94
2023-05-03T02:20:28.730Z,101051.81
2023-05-03T02:25:30.214Z,101044.88
2023-05-03T02:30:31.939Z,101046.75
2023-05-03T02:35:33.649Z,101033.09
2023-05-03T02:40:35.066Z,101045.53
2023-05-03T02:45:36.744Z,101051.19
2023-05-03T02:50:38.871Z,101056.66
2023-05-03T02:55:40.261Z,101054.53
2023-05-03T03:00:41.735Z,101060.84
2023-05-03T03:05:43.110Z,101066.31
2023-05-03T03:10:44.498Z,101072.63
2023-05-03T03:15:46.151Z,101075.97
2023-05-03T03:20:47.619Z,101084.81
2023-05-03T03:25:49.000Z,101090.69
2023-05-03T03:30:50.477Z,101089.63
2023-05-03T03:35:51.882Z,101087.31
2023-05-03T03:40:54.301Z,101087.13
2023-05-03T03:45:55.685Z,101091.13
2023-05-03T03:50:57.119Z,101103.28
2023-05-03T03:55:58.499Z,101097.22
2023-05-03T04:01:00.618Z,101103.72
2023-05-03T04:06:02.029Z,101113.00
2023-05-03T04:11:03.569Z,101124.75
2023-05-03T04:16:06.443Z,101131.88
2023-05-03T04:21:08.019Z,101130.84
2023-05-03T04:26:17.064Z,101136.06
2023-05-03T04:31:25.360Z,101152.91
2023-05-03T04:36:29.683Z,101152.69
2023-05-03T04:41:31.418Z,101159.81
2023-05-03T04:46:32.846Z,101166.13
2023-05-03T04:51:34.249Z,101166.34
2023-05-03T04:56:35.927Z,101164.66
2023-05-03T05:01:37.342Z,101169.72
2023-05-03T05:06:38.895Z,101168.66
2023-05-03T05:11:40.360Z,101177.72
2023-05-03T05:16:41.817Z,101186.34
2023-05-03T05:21:43.288Z,101193.25
2023-05-03T05:26:44.705Z,101199.56
2023-05-03T05:31:46.357Z,101206.28
2023-05-03T05:36:47.873Z,101201.47
2023-05-03T05:41:49.462Z,101209.66
2023-05-03T05:46:50.988Z,101212.59
2023-05-03T05:51:52.400Z,101221.19
2023-05-03T05:56:53.789Z,101211.31
2023-05-03T06:01:55.316Z,101213.63
2023-05-03T06:06:56.782Z,101224.97
2023-05-03T06:11:58.170Z,101216.59
2023-05-03T06:17:00.606Z,101218.47
2023-05-03T06:22:02.401Z,101224.56
2023-05-03T06:27:03.946Z,101231.06
2023-05-03T06:32:05.637Z,101223.88
2023-05-03T06:37:07.009Z,101233.53
2023-05-03T06:42:08.395Z,101233.13
2023-05-03T06:47:09.830Z,101231.41
2023-05-03T06:52:11.790Z,101232.06
2023-05-03T06:57:13.493Z,101226.84
2023-05-03T07:02:15.034Z,101225.16
2023-05-03T07:07:16.694Z,101223.88
2023-05-03T07:12:18.169Z,101227.47
2023-05-03T07:17:19.585Z,101229.56
2023-05-03T07:22:24.518Z,101224.31
2023-05-03T07:27:26.661Z,101214.22
2023-05-03T07:32:28.120Z,101214.88
2023-05-03T07:37:29.536Z,101217.81
2023-05-03T07:42:31.156Z,101211.50
2023-05-03T07:47:35.228Z,101214.66
2023-05-03T07:52:37.111Z,101222.44
2023-05-03T07:57:38.493Z,101214.22
2023-05-03T08:02:40.117Z,101209.41
2023-05-03T08:07:41.978Z,101207.47
2023-05-03T08:12:43.476Z,101207.47
2023-05-03T08:17:45.276Z,101208.50
2023-05-03T08:22:47.108Z,101205.16
2023-05-03T08:27:49.151Z,101201.56
2023-05-03T08:32:51.399Z,101198.81
2023-05-03T08:37:52.899Z,101189.97
2023-05-03T08:42:55.222Z,101200.66
2023-05-03T08:47:56.682Z,101207.81
2023-05-03T08:52:58.899Z,101206.53
2023-05-03T08:58:00.549Z,101213.25
2023-05-03T09:03:02.180Z,101208.00
2023-05-03T09:08:11.033Z,101208.22
2023-05-03T09:13:12.423Z,101209.09
2023-05-03T09:18:18.629Z,101206.97
2023-05-03T09:23:29.604Z,101187.47
2023-05-03T09:28:40.549Z,101203.88
2023-05-03T09:33:42.150Z,101190.38
2023-05-03T09:38:43.839Z,101193.97
2023-05-03T09:43:52.158Z,101190.41
2023-05-03T09:48:57.180Z,101197.56
2023-05-03T09:53:58.774Z,101181.16
2023-05-03T09:59:00.184Z,101195.44
2023-05-03T10:04:01.614Z,101188.09
2023-05-03T10:09:20.618Z,101182.63
2023-05-03T10:14:22.044Z,101177.75
2023-05-03T10:19:32.152Z,101177.91
2023-05-03T10:24:34.420Z,101176.44
2023-05-03T10:29:46.007Z,101173.72
2023-05-03T10:34:47.451Z,101170.13
2023-05-03T10:39:48.839Z,101175.78
2023-05-03T10:44:54.025Z,101156.44
2023-05-03T10:50:24.794Z,101166.28
2023-05-03T10:55:26.638Z,101164.59
2023-05-03T11:00:37.393Z,101163.34
2023-05-03T11:05:38.959Z,101159.75
2023-05-03T11:10:40.690Z,101142.50
2023-05-03T11:15:42.235Z,101151.34
2023-05-03T11:20:43.687Z,101151.16
2023-05-03T11:25:45.062Z,101160.88
2023-05-03T11:30:46.495Z,101143.19
2023-05-03T11:35:47.925Z,101143.84
2023-05-03T11:40:49.310Z,101140.47
2023-05-03T11:45:50.772Z,101142.59
2023-05-03T11:50:55.608Z,101136.72
2023-05-03T11:55:57.085Z,101137.16
2023-05-03T12:00:58.472Z,101145.16
2023-05-03T12:06:00.652Z,101144.94
2023-05-03T12:11:06.330Z,101143.44
2023-05-03T12:26:22.488Z,101123.34
2023-05-03T12:31:24.350Z,101119.72
2023-05-03T12:36:26.474Z,101120.72
2023-05-03T12:41:52.695Z,101118.78
2023-05-03T12:46:53.398Z,101115.38
2023-05-03T12:52:22.634Z,101108.22
2023-05-03T12:57:23.688Z,101107.75
2023-05-03T13:07:31.778Z,101099.72
2023-05-03T13:12:36.231Z,101083.50
2023-05-03T13:17:37.759Z,101080.13
2023-05-03T13:22:39.211Z,101081.56
2023-05-03T13:27:41.057Z,101080.31
2023-05-03T13:32:42.511Z,101082.44
2023-05-03T13:37:44.361Z,101069.38
2023-05-03T13:42:45.751Z,101063.25
2023-05-03T13:48:10.491Z,101058.88
2023-05-03T13:53:08.464Z,101060.75
2023-05-03T13:58:09.864Z,101050.22
2023-05-03T14:03:11.950Z,101048.91
2023-05-03T14:08:13.557Z,101048.28
2023-05-03T14:13:14.993Z,101036.88
2023-05-03T14:18:16.531Z,101047.84
2023-05-03T14:23:17.980Z,101033.69
2023-05-03T14:28:19.492Z,101043.00
2023-05-03T14:33:21.211Z,101027.69
2023-05-03T14:38:22.669Z,101037.22
2023-05-03T14:43:24.057Z,101020.66
2023-05-03T14:48:25.713Z,101014.63
2023-05-03T14:53:27.143Z,101020.38
2023-05-03T14:58:28.548Z,101021.69
2023-05-03T15:03:30.452Z,101025.47
2023-05-03T15:08:32.012Z,101019.81
2023-05-03T15:13:34.030Z,101026.41
2023-05-03T15:18:36.009Z,101024.31
2023-05-03T15:23:37.378Z,101026.88
2023-05-03T15:28:38.770Z,101019.91
2023-05-03T15:33:41.639Z,101013.41
2023-05-03T15:38:43.047Z,101011.78
2023-05-03T15:43:47.175Z,101010.50
2023-05-03T15:48:48.556Z,101008.59
2023-05-03T15:53:49.930Z,101001.69
2023-05-03T15:58:51.461Z,100993.53
2023-05-03T16:03:52.880Z,100990.34
2023-05-03T16:08:54.254Z,101002.97
2023-05-03T16:13:55.632Z,100989.94
2023-05-03T16:18:57.184Z,100984.91
2023-05-03T16:23:58.787Z,100983.63
2023-05-03T16:29:00.822Z,100970.59
2023-05-03T16:34:02.610Z,100971.50
2023-05-03T16:39:04.330Z,100954.25
2023-05-03T16:44:06.141Z,100958.25
2023-05-03T16:49:07.542Z,100948.38
2023-05-03T16:54:09.034Z,100948.38
2023-05-03T16:59:10.493Z,100954.69
2023-05-03T17:04:12.231Z,100954.47
2023-05-03T17:09:13.895Z,100955.28
2023-05-03T17:14:15.382Z,100954.09
2023-05-03T17:19:18.003Z,100956.41
2023-05-03T17:24:19.526Z,100955.53
2023-05-03T17:29:21.468Z,100955.97
2023-05-03T17:34:24.775Z,100954.53
2023-05-03T17:39:28.189Z,100960.00
2023-05-03T17:44:29.575Z,100959.59
2023-05-03T17:49:33.860Z,100957.69
2023-05-03T17:54:35.458Z,100959.19
2023-05-03T17:59:36.855Z,100953.09
2023-05-03T18:04:38.222Z,100954.16
2023-05-03T18:09:39.594Z,100970.78
2023-05-03T18:14:40.975Z,100975.66
2023-05-03T18:19:45.809Z,100982.38
2023-05-03T18:24:47.230Z,100986.16
2023-05-03T18:29:48.803Z,100989.31
2023-05-03T18:34:50.299Z,100988.91
2023-05-03T18:39:51.697Z,100981.75
2023-05-03T18:44:53.480Z,100992.69
2023-05-03T18:49:54.870Z,100995.84
2023-05-03T18:54:56.448Z,100994.41
2023-05-03T19:00:01.205Z,100992.50
2023-05-03T19:05:03.060Z,101005.31
2023-05-03T19:10:05.041Z,101007.22
2023-05-03T19:15:07.110Z,101005.75
2023-05-03T19:20:09.933Z,101013.97
2023-05-03T19:25:11.357Z,101009.16
2023-05-03T19:30:13.008Z,101006.59
2023-05-03T19:35:14.641Z,101007.03
2023-05-03T19:40:16.047Z,101001.81
2023-05-03T19:45:17.459Z,101000.53
2023-05-03T19:50:18.834Z,101002.63
2023-05-03T19:55:20.380Z,101009.16
2023-05-03T20:00:23.079Z,101012.31
2023-05-03T20:05:24.467Z,101010.00
2023-05-03T20:10:26.006Z,101009.78
2023-05-03T20:15:28.330Z,101019.28
2023-05-03T20:20:30.617Z,101012.97
2023-05-03T20:25:32.030Z,101014.66
2023-05-03T20:30:34.530Z,101009.38
2023-05-03T20:35:38.676Z,101013.78
2023-05-03T20:40:40.054Z,101007.53
2023-05-03T20:45:41.601Z,101007.53
2023-05-03T20:50:43.509Z,101003.09
2023-05-03T20:55:44.891Z,101001.66
2023-05-03T21:00:46.288Z,101008.34
2023-05-03T21:05:47.742Z,101004.78
2023-05-03T21:10:49.125Z,101002.06
2023-05-03T21:15:53.411Z,100998.69
2023-05-03T21:20:54.859Z,100994.69
2023-05-03T21:25:56.556Z,100987.53
2023-05-03T21:30:58.041Z,100987.94
2023-05-03T21:36:00.156Z,100983.94
2023-05-03T21:41:04.008Z,100990.47
2023-05-03T21:46:08.644Z,100986.47
2023-05-03T21:51:17.608Z,100988.97
2023-05-03T21:56:18.995Z,100985.19
2023-05-03T22:01:21.519Z,100986.22
2023-05-03T22:06:22.950Z,100995.06
2023-05-03T22:11:24.325Z,100993.16
2023-05-03T22:16:25.741Z,100990.66
2023-05-03T22:21:27.338Z,100997.56
2023-05-03T22:26:29.606Z,100996.53
2023-05-03T22:31:31.417Z,100988.53
2023-05-03T22:36:33.079Z,100996.72
2023-05-03T22:41:34.598Z,100986.03
2023-05-03T22:46:36.112Z,100979.28
2023-05-03T22:51:38.331Z,100982.22
2023-05-03T22:56:39.715Z,100978.44
2023-05-03T23:01:41.481Z,100983.06
2023-05-03T23:06:42.870Z,100981.59
2023-05-03T23:11:44.246Z,100983.28
2023-05-03T23:16:46.374Z,100985.19
2023-05-03T23:21:48.042Z,100976.59
2023-05-03T23:26:49.446Z,100979.94
2023-05-03T23:31:51.325Z,100970.47
2023-05-03T23:36:53.521Z,100972.38
2023-05-03T23:41:54.934Z,100974.50
2023-05-03T23:46:56.304Z,100964.78
2023-05-03T23:51:57.701Z,100969.63
2023-05-03T23:56:59.516Z,100957.47
